Beauceville, Canada
Current Conditions -  °F | °C
As of 6:00 AM on Friday 31 Oct 2014 (Local Time) from CYQB Reporting Station
Overcast Overcast  
Wind Chill: 37°   Ceiling: 5100
Heat Index: 37°   Visibility: 15mi
Dew Point: 32°   Wind: 0mph
Humidity: 81%   Direction: NA
Pressure: 30.01"   Gusts: NA
Location:  46.21°N, 70.77°W
Report Text: CYQB 311000Z 00000KT 15SM OVC051 03/M00 A3001 RMK SC8 SLP165
Loading
Personal Weather Stations






























Interactive Weather Map
Tropical Storm Tracking
New forecast layout! Learn more

10-Day Weather Forecast

Advertisements
Track Severe Weather on mobile